sensor_id;sensor_type;location;lat;lon;timestamp;pressure;altitude;pressure_sealevel;temperature;humidity
31775;BME280;66189;49.000;11.640;2022-12-29T00:00:17;95724.03;;;3.59;68.36
31775;BME280;66189;49.000;11.640;2022-12-29T00:02:18;95727.00;;;3.58;68.19
31775;BME280;66189;49.000;11.640;2022-12-29T00:04:18;95723.84;;;3.64;67.80
31775;BME280;66189;49.000;11.640;2022-12-29T00:06:19;95722.63;;;3.62;68.34
31775;BME280;66189;49.000;11.640;2022-12-29T00:08:19;95717.88;;;3.76;67.69
31775;BME280;66189;49.000;11.640;2022-12-29T00:10:19;95720.22;;;3.78;67.34
31775;BME280;66189;49.000;11.640;2022-12-29T00:12:20;95715.22;;;3.76;67.10
31775;BME280;66189;49.000;11.640;2022-12-29T00:14:20;95716.91;;;3.89;66.85
31775;BME280;66189;49.000;11.640;2022-12-29T00:16:44;95719.13;;;3.79;67.73
31775;BME280;66189;49.000;11.640;2022-12-29T00:18:45;95718.03;;;3.80;67.50
31775;BME280;66189;49.000;11.640;2022-12-29T00:20:45;95720.50;;;3.85;67.03
31775;BME280;66189;49.000;11.640;2022-12-29T00:23:04;95709.41;;;3.83;67.21
31775;BME280;66189;49.000;11.640;2022-12-29T00:25:23;95714.22;;;3.89;67.06
31775;BME280;66189;49.000;11.640;2022-12-29T00:27:42;95708.06;;;3.98;66.51
31775;BME280;66189;49.000;11.640;2022-12-29T00:30:01;95718.56;;;4.03;66.41
31775;BME280;66189;49.000;11.640;2022-12-29T00:32:20;95712.19;;;3.95;67.23
31775;BME280;66189;49.000;11.640;2022-12-29T00:34:39;95706.50;;;4.05;66.14
31775;BME280;66189;49.000;11.640;2022-12-29T00:36:58;95704.78;;;4.01;66.78
31775;BME280;66189;49.000;11.640;2022-12-29T00:39:15;95708.03;;;4.06;66.40
31775;BME280;66189;49.000;11.640;2022-12-29T00:41:35;95699.13;;;4.02;66.33
31775;BME280;66189;49.000;11.640;2022-12-29T00:43:54;95706.44;;;4.14;65.82
31775;BME280;66189;49.000;11.640;2022-12-29T00:46:06;95709.28;;;4.09;66.64
31775;BME280;66189;49.000;11.640;2022-12-29T00:48:07;95709.41;;;4.13;66.13
31775;BME280;66189;49.000;11.640;2022-12-29T00:50:07;95707.03;;;4.20;65.69
31775;BME280;66189;49.000;11.640;2022-12-29T00:52:12;95706.72;;;4.21;65.65
31775;BME280;66189;49.000;11.640;2022-12-29T00:54:13;95705.47;;;4.19;66.19
31775;BME280;66189;49.000;11.640;2022-12-29T00:56:14;95701.91;;;4.15;66.33
31775;BME280;66189;49.000;11.640;2022-12-29T00:58:14;95698.50;;;4.05;66.36
31775;BME280;66189;49.000;11.640;2022-12-29T01:00:15;95704.00;;;4.00;66.72
31775;BME280;66189;49.000;11.640;2022-12-29T01:02:15;95701.34;;;4.00;66.31
31775;BME280;66189;49.000;11.640;2022-12-29T01:04:16;95702.63;;;3.94;66.54
31775;BME280;66189;49.000;11.640;2022-12-29T01:06:18;95705.91;;;4.00;66.75
31775;BME280;66189;49.000;11.640;2022-12-29T01:08:18;95704.34;;;3.90;67.13
31775;BME280;66189;49.000;11.640;2022-12-29T01:10:19;95706.88;;;3.86;67.25
31775;BME280;66189;49.000;11.640;2022-12-29T01:12:20;95707.31;;;3.97;66.60
31775;BME280;66189;49.000;11.640;2022-12-29T01:14:40;95698.38;;;3.93;66.62
31775;BME280;66189;49.000;11.640;2022-12-29T01:16:41;95696.66;;;3.97;66.11
31775;BME280;66189;49.000;11.640;2022-12-29T01:18:41;95701.38;;;3.91;66.66
31775;BME280;66189;49.000;11.640;2022-12-29T01:20:42;95698.25;;;3.89;67.21
31775;BME280;66189;49.000;11.640;2022-12-29T01:22:42;95696.84;;;3.92;67.07
31775;BME280;66189;49.000;11.640;2022-12-29T01:24:43;95702.75;;;3.98;66.92
31775;BME280;66189;49.000;11.640;2022-12-29T01:26:47;95684.19;;;3.89;66.97
31775;BME280;66189;49.000;11.640;2022-12-29T01:28:50;95696.66;;;3.97;66.65
31775;BME280;66189;49.000;11.640;2022-12-29T01:30:51;95688.19;;;4.04;66.44
31775;BME280;66189;49.000;11.640;2022-12-29T01:32:51;95682.25;;;3.98;66.72
31775;BME280;66189;49.000;11.640;2022-12-29T01:34:52;95679.25;;;4.08;65.61
31775;BME280;66189;49.000;11.640;2022-12-29T01:36:53;95693.94;;;4.15;65.22
31775;BME280;66189;49.000;11.640;2022-12-29T01:38:53;95682.03;;;4.12;65.41
31775;BME280;66189;49.000;11.640;2022-12-29T01:40:54;95679.69;;;4.11;65.77
31775;BME280;66189;49.000;11.640;2022-12-29T01:42:55;95674.56;;;4.05;65.91
31775;BME280;66189;49.000;11.640;2022-12-29T01:44:58;95671.19;;;4.17;64.86
31775;BME280;66189;49.000;11.640;2022-12-29T01:47:00;95685.00;;;4.11;65.16
31775;BME280;66189;49.000;11.640;2022-12-29T01:51:16;95663.72;;;4.11;65.49
31775;BME280;66189;49.000;11.640;2022-12-29T01:53:26;95663.19;;;4.17;65.21
31775;BME280;66189;49.000;11.640;2022-12-29T01:55:30;95676.47;;;4.26;64.51
31775;BME280;66189;49.000;11.640;2022-12-29T01:57:36;95673.72;;;4.14;65.64
31775;BME280;66189;49.000;11.640;2022-12-29T01:59:43;95662.63;;;4.12;65.28
31775;BME280;66189;49.000;11.640;2022-12-29T02:01:46;95665.59;;;4.10;65.50
31775;BME280;66189;49.000;11.640;2022-12-29T02:03:47;95660.53;;;4.17;64.64
31775;BME280;66189;49.000;11.640;2022-12-29T02:06:10;95661.25;;;4.26;64.62
31775;BME280;66189;49.000;11.640;2022-12-29T02:08:12;95669.16;;;4.14;65.22
31775;BME280;66189;49.000;11.640;2022-12-29T02:10:13;95662.03;;;4.06;65.78
31775;BME280;66189;49.000;11.640;2022-12-29T02:12:16;95662.03;;;4.06;65.71
31775;BME280;66189;49.000;11.640;2022-12-29T02:14:18;95667.19;;;4.02;66.15
31775;BME280;66189;49.000;11.640;2022-12-29T02:16:31;95671.25;;;4.08;65.72
31775;BME280;66189;49.000;11.640;2022-12-29T02:18:40;95673.47;;;3.98;65.94
31775;BME280;66189;49.000;11.640;2022-12-29T02:21:12;95687.28;;;3.91;66.58
31775;BME280;66189;49.000;11.640;2022-12-29T02:28:27;95648.75;;;3.97;67.21
31775;BME280;66189;49.000;11.640;2022-12-29T02:32:54;95623.97;;;4.05;66.24
31775;BME280;66189;49.000;11.640;2022-12-29T02:35:17;95629.38;;;4.18;64.94
31775;BME280;66189;49.000;11.640;2022-12-29T02:37:31;95616.31;;;4.25;64.67
31775;BME280;66189;49.000;11.640;2022-12-29T02:42:01;95607.88;;;4.44;63.65
31775;BME280;66189;49.000;11.640;2022-12-29T02:48:45;95629.13;;;4.53;63.22
31775;BME280;66189;49.000;11.640;2022-12-29T02:51:00;95625.34;;;4.54;62.90
31775;BME280;66189;49.000;11.640;2022-12-29T02:53:05;95636.19;;;4.49;63.38
31775;BME280;66189;49.000;11.640;2022-12-29T02:55:10;95622.50;;;4.59;63.14
31775;BME280;66189;49.000;11.640;2022-12-29T02:59:22;95626.00;;;4.51;63.65
31775;BME280;66189;49.000;11.640;2022-12-29T03:01:40;95626.19;;;4.45;64.22
31775;BME280;66189;49.000;11.640;2022-12-29T03:04:44;95631.47;;;4.54;63.43
31775;BME280;66189;49.000;11.640;2022-12-29T03:06:52;95625.81;;;4.56;63.09
31775;BME280;66189;49.000;11.640;2022-12-29T03:11:14;95615.84;;;4.65;62.02
31775;BME280;66189;49.000;11.640;2022-12-29T03:13:45;95620.00;;;4.75;60.81
31775;BME280;66189;49.000;11.640;2022-12-29T03:20:54;95611.25;;;4.87;60.65
31775;BME280;66189;49.000;11.640;2022-12-29T03:23:00;95615.78;;;4.74;61.92
31775;BME280;66189;49.000;11.640;2022-12-29T03:25:22;95610.56;;;4.77;60.72
31775;BME280;66189;49.000;11.640;2022-12-29T03:27:33;95607.78;;;4.74;60.82
31775;BME280;66189;49.000;11.640;2022-12-29T03:29:43;95610.03;;;4.84;60.42
31775;BME280;66189;49.000;11.640;2022-12-29T03:31:47;95610.34;;;4.83;60.42
31775;BME280;66189;49.000;11.640;2022-12-29T03:33:48;95603.06;;;4.92;59.75
31775;BME280;66189;49.000;11.640;2022-12-29T03:35:52;95605.28;;;4.90;60.09
31775;BME280;66189;49.000;11.640;2022-12-29T03:38:05;95607.69;;;4.83;60.44
31775;BME280;66189;49.000;11.640;2022-12-29T03:40:08;95599.09;;;4.98;59.30
31775;BME280;66189;49.000;11.640;2022-12-29T03:42:20;95599.22;;;5.02;59.67
31775;BME280;66189;49.000;11.640;2022-12-29T03:44:31;95605.59;;;4.88;60.33
31775;BME280;66189;49.000;11.640;2022-12-29T03:46:32;95601.97;;;5.05;59.14
31775;BME280;66189;49.000;11.640;2022-12-29T03:48:33;95605.72;;;4.92;60.62
31775;BME280;66189;49.000;11.640;2022-12-29T03:50:34;95601.03;;;4.89;59.77
31775;BME280;66189;49.000;11.640;2022-12-29T03:52:34;95593.97;;;4.93;59.16
31775;BME280;66189;49.000;11.640;2022-12-29T03:54:35;95583.91;;;5.11;58.96
31775;BME280;66189;49.000;11.640;2022-12-29T03:56:35;95584.88;;;5.06;58.98
31775;BME280;66189;49.000;11.640;2022-12-29T03:58:37;95586.47;;;5.07;58.59
31775;BME280;66189;49.000;11.640;2022-12-29T04:00:44;95592.44;;;5.04;59.34
31775;BME280;66189;49.000;11.640;2022-12-29T04:02:44;95589.81;;;5.16;58.44
31775;BME280;66189;49.000;11.640;2022-12-29T04:04:50;95582.22;;;5.06;59.06
31775;BME280;66189;49.000;11.640;2022-12-29T04:06:51;95591.00;;;5.07;58.44
31775;BME280;66189;49.000;11.640;2022-12-29T04:08:51;95585.56;;;5.03;59.33
31775;BME280;66189;49.000;11.640;2022-12-29T04:10:52;95585.31;;;4.96;59.50
31775;BME280;66189;49.000;11.640;2022-12-29T04:12:55;95586.47;;;5.07;59.22
31775;BME280;66189;49.000;11.640;2022-12-29T04:14:56;95588.00;;;5.08;58.67
31775;BME280;66189;49.000;11.640;2022-12-29T04:16:57;95587.88;;;5.05;59.02
31775;BME280;66189;49.000;11.640;2022-12-29T04:18:57;95596.50;;;4.89;59.28
31775;BME280;66189;49.000;11.640;2022-12-29T04:20:58;95596.66;;;5.05;59.26
31775;BME280;66189;49.000;11.640;2022-12-29T04:23:04;95591.09;;;4.98;60.19
31775;BME280;66189;49.000;11.640;2022-12-29T04:25:07;95593.31;;;4.96;59.23
31775;BME280;66189;49.000;11.640;2022-12-29T04:27:08;95592.06;;;4.93;60.17
31775;BME280;66189;49.000;11.640;2022-12-29T04:29:34;95598.81;;;4.78;60.62
31775;BME280;66189;49.000;11.640;2022-12-29T04:31:44;95591.34;;;4.72;60.79
31775;BME280;66189;49.000;11.640;2022-12-29T04:33:44;95599.81;;;4.74;60.73
31775;BME280;66189;49.000;11.640;2022-12-29T04:35:45;95593.16;;;4.80;60.20
31775;BME280;66189;49.000;11.640;2022-12-29T04:37:46;95597.47;;;4.72;60.63
31775;BME280;66189;49.000;11.640;2022-12-29T04:39:47;95599.66;;;4.70;60.14
31775;BME280;66189;49.000;11.640;2022-12-29T04:41:47;95588.34;;;4.73;60.11
31775;BME280;66189;49.000;11.640;2022-12-29T04:43:52;95598.59;;;4.84;59.47
31775;BME280;66189;49.000;11.640;2022-12-29T04:46:01;95599.97;;;5.02;58.12
31775;BME280;66189;49.000;11.640;2022-12-29T04:48:08;95590.47;;;5.13;57.49
31775;BME280;66189;49.000;11.640;2022-12-29T04:50:31;95597.88;;;5.08;58.19
31775;BME280;66189;49.000;11.640;2022-12-29T04:52:52;95600.69;;;5.24;57.50
31775;BME280;66189;49.000;11.640;2022-12-29T04:54:52;95603.91;;;5.17;58.53
31775;BME280;66189;49.000;11.640;2022-12-29T04:56:54;95603.69;;;5.22;58.77
31775;BME280;66189;49.000;11.640;2022-12-29T04:58:55;95594.81;;;5.43;56.61
31775;BME280;66189;49.000;11.640;2022-12-29T05:00:56;95594.91;;;5.34;57.01
31775;BME280;66189;49.000;11.640;2022-12-29T05:03:01;95596.50;;;5.35;57.20
31775;BME280;66189;49.000;11.640;2022-12-29T05:05:03;95590.72;;;5.33;57.29
31775;BME280;66189;49.000;11.640;2022-12-29T05:07:06;95598.16;;;5.52;55.88
31775;BME280;66189;49.000;11.640;2022-12-29T05:09:07;95605.59;;;5.34;57.35
31775;BME280;66189;49.000;11.640;2022-12-29T05:11:08;95601.59;;;5.52;56.13
31775;BME280;66189;49.000;11.640;2022-12-29T05:13:09;95589.16;;;5.32;57.04
31775;BME280;66189;49.000;11.640;2022-12-29T05:15:09;95599.25;;;5.39;56.64
31775;BME280;66189;49.000;11.640;2022-12-29T05:17:10;95598.59;;;5.54;56.72
31775;BME280;66189;49.000;11.640;2022-12-29T05:19:11;95600.91;;;5.31;57.48
31775;BME280;66189;49.000;11.640;2022-12-29T05:21:11;95598.81;;;5.37;56.40
31775;BME280;66189;49.000;11.640;2022-12-29T05:23:14;95588.16;;;5.49;55.97
31775;BME280;66189;49.000;11.640;2022-12-29T05:25:16;95590.25;;;5.43;56.04
31775;BME280;66189;49.000;11.640;2022-12-29T05:27:44;95589.63;;;5.59;54.82
31775;BME280;66189;49.000;11.640;2022-12-29T05:29:53;95587.59;;;5.56;55.88
31775;BME280;66189;49.000;11.640;2022-12-29T05:31:54;95587.50;;;5.52;55.42
31775;BME280;66189;49.000;11.640;2022-12-29T05:33:55;95595.72;;;5.59;55.65
31775;BME280;66189;49.000;11.640;2022-12-29T05:35:56;95593.84;;;5.60;56.00
31775;BME280;66189;49.000;11.640;2022-12-29T05:37:57;95592.84;;;5.52;56.00
31775;BME280;66189;49.000;11.640;2022-12-29T05:39:58;95595.94;;;5.42;56.91
31775;BME280;66189;49.000;11.640;2022-12-29T05:41:59;95591.72;;;5.41;57.58
31775;BME280;66189;49.000;11.640;2022-12-29T05:44:13;95588.22;;;5.15;57.84
31775;BME280;66189;49.000;11.640;2022-12-29T05:46:23;95595.16;;;5.29;57.28
31775;BME280;66189;49.000;11.640;2022-12-29T05:48:52;95599.66;;;5.16;57.70
31775;BME280;66189;49.000;11.640;2022-12-29T05:51:13;95595.00;;;5.13;57.86
31775;BME280;66189;49.000;11.640;2022-12-29T05:53:20;95595.66;;;5.10;58.49
31775;BME280;66189;49.000;11.640;2022-12-29T05:55:21;95590.25;;;5.19;57.69
31775;BME280;66189;49.000;11.640;2022-12-29T05:57:24;95601.81;;;5.35;57.00
31775;BME280;66189;49.000;11.640;2022-12-29T05:59:33;95602.91;;;5.22;57.81
31775;BME280;66189;49.000;11.640;2022-12-29T06:01:34;95600.13;;;5.06;59.06
31775;BME280;66189;49.000;11.640;2022-12-29T06:03:34;95597.56;;;5.09;58.42
31775;BME280;66189;49.000;11.640;2022-12-29T06:05:35;95599.91;;;5.11;58.06
31775;BME280;66189;49.000;11.640;2022-12-29T06:07:35;95607.78;;;5.07;58.78
31775;BME280;66189;49.000;11.640;2022-12-29T06:09:39;95604.00;;;5.08;58.55
31775;BME280;66189;49.000;11.640;2022-12-29T06:11:40;95611.31;;;4.99;59.02
31775;BME280;66189;49.000;11.640;2022-12-29T06:13:42;95601.19;;;4.92;59.86
31775;BME280;66189;49.000;11.640;2022-12-29T06:15:43;95600.84;;;4.94;59.10
31775;BME280;66189;49.000;11.640;2022-12-29T06:17:43;95605.53;;;4.97;58.95
31775;BME280;66189;49.000;11.640;2022-12-29T06:19:44;95603.56;;;5.06;58.69
31775;BME280;66189;49.000;11.640;2022-12-29T06:21:44;95604.94;;;4.91;59.10
31775;BME280;66189;49.000;11.640;2022-12-29T06:23:45;95592.38;;;4.92;59.51
31775;BME280;66189;49.000;11.640;2022-12-29T06:25:48;95589.28;;;4.90;59.49
31775;BME280;66189;49.000;11.640;2022-12-29T06:27:49;95596.47;;;4.77;59.29
31775;BME280;66189;49.000;11.640;2022-12-29T06:29:49;95595.91;;;4.71;60.09
31775;BME280;66189;49.000;11.640;2022-12-29T06:31:49;95606.44;;;4.68;60.11
31775;BME280;66189;49.000;11.640;2022-12-29T06:33:51;95601.19;;;4.59;60.30
31775;BME280;66189;49.000;11.640;2022-12-29T06:35:51;95597.16;;;4.53;60.82
31775;BME280;66189;49.000;11.640;2022-12-29T06:37:51;95597.13;;;4.40;61.27
31775;BME280;66189;49.000;11.640;2022-12-29T06:39:53;95600.59;;;4.32;61.79
31775;BME280;66189;49.000;11.640;2022-12-29T06:41:54;95614.13;;;4.27;62.23
31775;BME280;66189;49.000;11.640;2022-12-29T06:44:15;95611.06;;;4.37;61.44
31775;BME280;66189;49.000;11.640;2022-12-29T06:46:29;95598.78;;;4.24;62.00
31775;BME280;66189;49.000;11.640;2022-12-29T06:48:29;95602.50;;;4.32;61.65
31775;BME280;66189;49.000;11.640;2022-12-29T06:50:29;95613.91;;;4.32;61.67
31775;BME280;66189;49.000;11.640;2022-12-29T06:52:30;95604.31;;;4.40;61.36
31775;BME280;66189;49.000;11.640;2022-12-29T06:54:30;95608.66;;;4.44;61.03
31775;BME280;66189;49.000;11.640;2022-12-29T06:56:31;95609.25;;;4.50;60.98
31775;BME280;66189;49.000;11.640;2022-12-29T06:58:32;95613.47;;;4.51;60.91
31775;BME280;66189;49.000;11.640;2022-12-29T07:00:32;95611.69;;;4.55;60.42
31775;BME280;66189;49.000;11.640;2022-12-29T07:02:32;95604.34;;;4.52;60.95
31775;BME280;66189;49.000;11.640;2022-12-29T07:04:33;95614.63;;;4.62;59.99
31775;BME280;66189;49.000;11.640;2022-12-29T07:06:33;95613.06;;;4.61;60.31
31775;BME280;66189;49.000;11.640;2022-12-29T07:08:33;95615.66;;;4.70;60.27
31775;BME280;66189;49.000;11.640;2022-12-29T07:10:34;95616.19;;;4.63;60.68
31775;BME280;66189;49.000;11.640;2022-12-29T07:12:34;95612.94;;;4.58;60.65
31775;BME280;66189;49.000;11.640;2022-12-29T07:14:35;95620.22;;;4.70;59.97
31775;BME280;66189;49.000;11.640;2022-12-29T07:16:36;95621.56;;;4.76;60.10
31775;BME280;66189;49.000;11.640;2022-12-29T07:18:37;95619.84;;;4.92;59.26
31775;BME280;66189;49.000;11.640;2022-12-29T07:20:37;95620.94;;;4.91;59.62
31775;BME280;66189;49.000;11.640;2022-12-29T07:22:38;95612.38;;;4.86;59.80
31775;BME280;66189;49.000;11.640;2022-12-29T07:24:38;95622.69;;;4.87;59.56
31775;BME280;66189;49.000;11.640;2022-12-29T07:26:39;95614.84;;;4.91;59.46
31775;BME280;66189;49.000;11.640;2022-12-29T07:28:39;95603.44;;;5.03;58.83
31775;BME280;66189;49.000;11.640;2022-12-29T07:30:41;95603.66;;;5.10;58.70
31775;BME280;66189;49.000;11.640;2022-12-29T07:32:42;95608.81;;;5.15;58.82
31775;BME280;66189;49.000;11.640;2022-12-29T07:34:42;95611.78;;;5.13;58.72
31775;BME280;66189;49.000;11.640;2022-12-29T07:36:45;95615.22;;;5.14;58.16
31775;BME280;66189;49.000;11.640;2022-12-29T07:38:45;95612.78;;;5.09;58.38
31775;BME280;66189;49.000;11.640;2022-12-29T07:40:45;95619.66;;;5.10;58.67
31775;BME280;66189;49.000;11.640;2022-12-29T07:42:46;95627.50;;;4.94;59.51
31775;BME280;66189;49.000;11.640;2022-12-29T07:44:49;95614.09;;;5.03;59.02
31775;BME280;66189;49.000;11.640;2022-12-29T07:46:58;95614.88;;;5.03;59.18
31775;BME280;66189;49.000;11.640;2022-12-29T07:48:59;95608.28;;;4.88;59.79
31775;BME280;66189;49.000;11.640;2022-12-29T07:50:59;95610.31;;;5.04;59.10
31775;BME280;66189;49.000;11.640;2022-12-29T07:53:00;95612.13;;;5.12;58.92
31775;BME280;66189;49.000;11.640;2022-12-29T07:55:00;95618.44;;;5.07;59.10
31775;BME280;66189;49.000;11.640;2022-12-29T07:57:00;95622.25;;;5.19;58.81
31775;BME280;66189;49.000;11.640;2022-12-29T07:59:01;95627.31;;;5.11;59.19
31775;BME280;66189;49.000;11.640;2022-12-29T08:01:01;95624.88;;;5.06;58.80
31775;BME280;66189;49.000;11.640;2022-12-29T08:03:02;95632.44;;;5.04;59.81
31775;BME280;66189;49.000;11.640;2022-12-29T08:05:02;95631.31;;;5.05;59.25
31775;BME280;66189;49.000;11.640;2022-12-29T08:07:03;95653.19;;;4.98;59.95
31775;BME280;66189;49.000;11.640;2022-12-29T08:09:03;95646.53;;;5.05;59.55
31775;BME280;66189;49.000;11.640;2022-12-29T08:11:04;95639.78;;;5.07;59.24
31775;BME280;66189;49.000;11.640;2022-12-29T08:13:04;95639.34;;;5.18;59.42
31775;BME280;66189;49.000;11.640;2022-12-29T08:15:05;95644.25;;;5.28;59.15
31775;BME280;66189;49.000;11.640;2022-12-29T08:17:06;95644.84;;;5.33;59.19
31775;BME280;66189;49.000;11.640;2022-12-29T08:19:06;95650.53;;;5.44;58.75
31775;BME280;66189;49.000;11.640;2022-12-29T08:21:07;95657.63;;;5.52;58.63
31775;BME280;66189;49.000;11.640;2022-12-29T08:23:07;95659.19;;;5.54;59.20
31775;BME280;66189;49.000;11.640;2022-12-29T08:25:09;95666.53;;;5.57;58.47
31775;BME280;66189;49.000;11.640;2022-12-29T08:27:09;95656.00;;;5.60;58.76
31775;BME280;66189;49.000;11.640;2022-12-29T08:29:10;95660.69;;;5.63;58.40
31775;BME280;66189;49.000;11.640;2022-12-29T08:31:10;95650.34;;;5.74;57.99
31775;BME280;66189;49.000;11.640;2022-12-29T08:33:10;95659.22;;;5.78;57.71
31775;BME280;66189;49.000;11.640;2022-12-29T08:35:11;95652.66;;;5.76;58.18
31775;BME280;66189;49.000;11.640;2022-12-29T08:37:12;95658.13;;;5.79;58.13
31775;BME280;66189;49.000;11.640;2022-12-29T08:39:13;95647.78;;;5.78;58.31
31775;BME280;66189;49.000;11.640;2022-12-29T08:41:13;95645.88;;;5.78;58.73
31775;BME280;66189;49.000;11.640;2022-12-29T08:43:14;95650.78;;;5.76;58.51
31775;BME280;66189;49.000;11.640;2022-12-29T08:45:14;95645.66;;;5.71;58.62
31775;BME280;66189;49.000;11.640;2022-12-29T08:47:14;95661.00;;;5.86;58.05
31775;BME280;66189;49.000;11.640;2022-12-29T08:49:15;95660.56;;;5.84;58.49
31775;BME280;66189;49.000;11.640;2022-12-29T08:51:15;95657.22;;;5.87;58.49
31775;BME280;66189;49.000;11.640;2022-12-29T08:53:17;95652.59;;;5.97;58.26
31775;BME280;66189;49.000;11.640;2022-12-29T08:55:18;95658.81;;;6.01;58.40
31775;BME280;66189;49.000;11.640;2022-12-29T08:57:20;95656.25;;;6.04;58.85
31775;BME280;66189;49.000;11.640;2022-12-29T08:59:46;95662.16;;;6.22;58.03
31775;BME280;66189;49.000;11.640;2022-12-29T09:01:48;95658.22;;;6.32;58.16
31775;BME280;66189;49.000;11.640;2022-12-29T09:03:49;95658.88;;;6.42;57.88
31775;BME280;66189;49.000;11.640;2022-12-29T09:05:50;95662.31;;;6.42;58.05
31775;BME280;66189;49.000;11.640;2022-12-29T09:07:50;95660.88;;;6.45;58.29
31775;BME280;66189;49.000;11.640;2022-12-29T09:09:51;95669.44;;;6.50;57.58
31775;BME280;66189;49.000;11.640;2022-12-29T09:11:51;95683.34;;;6.56;57.85
31775;BME280;66189;49.000;11.640;2022-12-29T09:13:52;95673.09;;;6.58;57.81
31775;BME280;66189;49.000;11.640;2022-12-29T09:15:58;95676.53;;;6.58;57.81
31775;BME280;66189;49.000;11.640;2022-12-29T09:17:59;95671.06;;;6.67;57.86
31775;BME280;66189;49.000;11.640;2022-12-29T09:19:59;95668.31;;;6.64;58.12
31775;BME280;66189;49.000;11.640;2022-12-29T09:22:00;95669.50;;;6.66;57.65
31775;BME280;66189;49.000;11.640;2022-12-29T09:24:00;95671.75;;;6.64;57.91
31775;BME280;66189;49.000;11.640;2022-12-29T09:26:01;95673.31;;;6.65;57.67
31775;BME280;66189;49.000;11.640;2022-12-29T09:28:01;95675.97;;;6.65;58.19
31775;BME280;66189;49.000;11.640;2022-12-29T09:30:09;95675.72;;;6.70;58.12
31775;BME280;66189;49.000;11.640;2022-12-29T09:32:10;95660.59;;;6.74;57.81
31775;BME280;66189;49.000;11.640;2022-12-29T09:34:10;95659.56;;;6.79;57.89
31775;BME280;66189;49.000;11.640;2022-12-29T09:36:10;95664.91;;;6.79;57.62
31775;BME280;66189;49.000;11.640;2022-12-29T09:38:11;95658.00;;;6.78;57.86
31775;BME280;66189;49.000;11.640;2022-12-29T09:40:26;95659.66;;;6.83;57.57
31775;BME280;66189;49.000;11.640;2022-12-29T09:42:40;95657.78;;;6.83;57.48
31775;BME280;66189;49.000;11.640;2022-12-29T09:46:57;95643.72;;;6.86;58.13
31775;BME280;66189;49.000;11.640;2022-12-29T09:49:18;95648.72;;;6.88;57.76
31775;BME280;66189;49.000;11.640;2022-12-29T09:51:23;95641.69;;;6.96;58.06
31775;BME280;66189;49.000;11.640;2022-12-29T09:55:43;95644.88;;;7.01;58.24
31775;BME280;66189;49.000;11.640;2022-12-29T09:57:58;95645.88;;;6.97;58.46
31775;BME280;66189;49.000;11.640;2022-12-29T10:00:08;95646.47;;;6.90;58.73
31775;BME280;66189;49.000;11.640;2022-12-29T10:04:36;95647.72;;;6.92;59.51
31775;BME280;66189;49.000;11.640;2022-12-29T10:06:42;95651.16;;;6.93;59.30
31775;BME280;66189;49.000;11.640;2022-12-29T10:09:00;95647.72;;;6.92;59.37
31775;BME280;66189;49.000;11.640;2022-12-29T10:13:42;95641.34;;;7.13;58.98
31775;BME280;66189;49.000;11.640;2022-12-29T10:16:02;95633.34;;;7.13;59.41
31775;BME280;66189;49.000;11.640;2022-12-29T10:20:22;95626.53;;;7.32;59.85
31775;BME280;66189;49.000;11.640;2022-12-29T10:24:44;95623.34;;;7.42;59.28
31775;BME280;66189;49.000;11.640;2022-12-29T10:26:48;95627.06;;;7.37;59.44
31775;BME280;66189;49.000;11.640;2022-12-29T10:29:04;95633.91;;;7.51;59.41
31775;BME280;66189;49.000;11.640;2022-12-29T10:31:10;95625.00;;;7.46;59.99
31775;BME280;66189;49.000;11.640;2022-12-29T10:33:17;95629.66;;;7.50;59.72
31775;BME280;66189;49.000;11.640;2022-12-29T10:35:24;95632.50;;;7.41;59.46
31775;BME280;66189;49.000;11.640;2022-12-29T10:37:37;95633.81;;;7.47;59.67
31775;BME280;66189;49.000;11.640;2022-12-29T10:39:51;95624.56;;;7.44;60.11
31775;BME280;66189;49.000;11.640;2022-12-29T10:44:11;95618.16;;;7.65;59.55
31775;BME280;66189;49.000;11.640;2022-12-29T10:46:19;95609.09;;;7.70;59.92
31775;BME280;66189;49.000;11.640;2022-12-29T10:48:25;95598.16;;;7.75;60.01
31775;BME280;66189;49.000;11.640;2022-12-29T10:50:27;95605.91;;;7.80;59.87
31775;BME280;66189;49.000;11.640;2022-12-29T10:52:31;95616.34;;;8.01;59.73
31775;BME280;66189;49.000;11.640;2022-12-29T10:56:44;95615.72;;;8.08;58.99
31775;BME280;66189;49.000;11.640;2022-12-29T10:58:48;95620.03;;;8.12;59.23
31775;BME280;66189;49.000;11.640;2022-12-29T11:00:53;95608.75;;;8.23;57.89
31775;BME280;66189;49.000;11.640;2022-12-29T11:05:19;95617.94;;;8.22;58.66
31775;BME280;66189;49.000;11.640;2022-12-29T11:07:22;95619.13;;;8.24;58.53
31775;BME280;66189;49.000;11.640;2022-12-29T11:09:28;95617.03;;;8.33;58.54
31775;BME280;66189;49.000;11.640;2022-12-29T11:11:34;95616.66;;;8.35;58.53
31775;BME280;66189;49.000;11.640;2022-12-29T11:14:02;95616.66;;;8.51;58.48
31775;BME280;66189;49.000;11.640;2022-12-29T11:16:03;95612.16;;;8.39;58.66
31775;BME280;66189;49.000;11.640;2022-12-29T11:18:03;95613.91;;;8.47;58.30
31775;BME280;66189;49.000;11.640;2022-12-29T11:20:36;95625.34;;;8.64;58.00
31775;BME280;66189;49.000;11.640;2022-12-29T11:22:43;95614.41;;;8.73;57.32
31775;BME280;66189;49.000;11.640;2022-12-29T11:24:46;95609.25;;;8.83;57.44
31775;BME280;66189;49.000;11.640;2022-12-29T11:26:49;95603.03;;;9.41;56.83
31775;BME280;66189;49.000;11.640;2022-12-29T11:29:17;95598.00;;;9.90;54.02
31775;BME280;66189;49.000;11.640;2022-12-29T11:31:21;95606.59;;;9.99;54.33
31775;BME280;66189;49.000;11.640;2022-12-29T11:33:22;95591.75;;;10.09;53.96
31775;BME280;66189;49.000;11.640;2022-12-29T11:35:35;95597.91;;;10.36;52.72
31775;BME280;66189;49.000;11.640;2022-12-29T11:37:39;95598.75;;;10.40;53.19
31775;BME280;66189;49.000;11.640;2022-12-29T11:41:52;95597.81;;;10.02;54.15
31775;BME280;66189;49.000;11.640;2022-12-29T11:43:55;95598.84;;;10.21;53.92
31775;BME280;66189;49.000;11.640;2022-12-29T11:45:57;95601.53;;;10.21;54.44
31775;BME280;66189;49.000;11.640;2022-12-29T11:48:06;95598.09;;;10.51;53.25
31775;BME280;66189;49.000;11.640;2022-12-29T11:50:15;95590.25;;;10.69;52.70